• Join FlightAware (Why Join?)
  • Login
  • US Flag 
10:37AM EST


 

Airport Tracker/Info


-or-


 

Live Flight TrackerFlight Track Log ✈ SWA378 ✈ 30-May-2013 ✈ KLAX - KATL

Flight Track Log - Related Links

Times and Time Zones

All times are in EDT time to prevent confusion due to time zone crossing. See the SWA378 flight status page for this flight to view local times or setup timezone preferences in your user account.

Time Position Orientation Groundspeed Altitude Reporting Facility
EDT Latitude Longitude Course Direction KTS MPH feet Rate Location/Type
01:21PM 33.9303 -118.4939 229° Southwest 212 244 2,400  Level Los Angeles Center
01:22PM 33.8658 -118.5225 200° South 253 291 3,700 1,980 Climbing Los Angeles Center
01:23PM 33.7928 -118.5194 178° South 281 323 6,500 2,580 Climbing Los Angeles Center
01:24PM 33.7106 -118.5144 177° South 303 349 9,100 2,340 Climbing Los Angeles Center
01:25PM 33.6608 -118.4017 118° Southeast 334 384 11,400 2,220 Climbing Los Angeles Center
01:27PM 33.6431 -118.2833 100° East 382 440 13,800 2,400 Climbing Los Angeles Center
01:28PM 33.6444 -118.1575 89° East 385 443 16,400 2,700 Climbing Los Angeles Center
01:29PM 33.6442 -117.9964 90° East 404 465 19,400 2,460 Climbing Los Angeles Center
01:30PM 33.6442 -117.8597 90° East 413 475 21,600 2,160 Climbing Los Angeles Center
01:31PM 33.6428 -117.7217 91° East 415 478 23,900 1,920 Climbing Los Angeles Center
01:32PM 33.6436 -117.5825 90° East 419 482 25,600 1,680 Climbing Los Angeles Center
01:33PM 33.6414 -117.4364 91° East 435 501 27,400 1,620 Climbing Los Angeles Center
01:34PM 33.6411 -117.2878 90° East 445 512 29,000 1,140 Climbing Los Angeles Center
01:35PM 33.6386 -117.0969 91° East 478 550 29,800 960 Climbing Los Angeles Center
01:36PM 33.6567 -116.9317 82° East 501 577 31,100 1,440 Climbing Los Angeles Center
01:37PM 33.6778 -116.7764 81° East 498 573 32,800 1,500 Climbing Los Angeles Center
01:38PM 33.7011 -116.6142 80° East 492 566 34,300 1,260 Climbing Los Angeles Center
01:39PM 33.7283 -116.4186 80° East 493 567 35,500 1,140 Climbing Los Angeles Center
01:40PM 33.7511 -116.2542 80° East 497 572 36,700 720 Climbing Los Angeles Center
01:41PM 33.7725 -116.0911 81° East 495 570 37,000 120 Climbing Los Angeles Center
01:42PM 33.7950 -115.9289 80° East 492 566 37,000  Level Los Angeles Center
01:43PM 33.8158 -115.7686 81° East 488 562 37,000  Level Los Angeles Center
01:44PM 33.8372 -115.6053 81° East 491 565 37,000  Level Los Angeles Center
01:45PM 33.8567 -115.4433 82° East 490 564 37,000  Level Los Angeles Center
01:46PM 33.8828 -115.2475 81° East 493 567 37,000  Level Los Angeles Center
01:47PM 33.9050 -115.0850 81° East 494 568 37,000  Level Los Angeles Center
01:48PM 33.9247 -114.9222 82° East 492 566 37,000  Level Los Angeles Center
01:49PM 33.9464 -114.7600 81° East 491 565 37,000  Level Los Angeles Center
01:50PM 33.9664 -114.5972 82° East 491 565 37,000  Level Los Angeles Center
01:51PM 33.9872 -114.4358 81° East 488 562 37,000  Level Los Angeles Center
01:52PM 34.0100 -114.2403 82° East 491 565 37,000  Level Los Angeles Center
01:53PM 34.0300 -114.0778 82° East 489 563 37,000  Level Los Angeles Center
01:54PM 34.0494 -113.9158 82° East 491 565 37,000  Level Los Angeles Center
01:55PM 34.0550 -113.8719 81° East 492 566 37,000  Level Albuquerque Center
01:56PM 34.0742 -113.7106 82° East 490 564 37,000  Level Albuquerque Center
01:57PM 34.0964 -113.5147 82° East 491 565 37,000  Level Albuquerque Center
01:58PM 34.1144 -113.3525 82° East 489 563 37,000  Level Albuquerque Center
01:59PM 34.1322 -113.1894 82° East 490 564 37,000  Level Albuquerque Center
02:00PM 34.1508 -113.0253 82° East 492 566 37,000  Level Albuquerque Center
02:01PM 34.1689 -112.8617 82° East 494 568 37,000  Level Albuquerque Center
02:02PM 34.1869 -112.6983 82° East 492 566 37,000  Level Albuquerque Center
02:03PM 34.2072 -112.5000 83° East 494 568 37,000  Level Albuquerque Center
02:04PM 34.2253 -112.3342 82° East 495 570 37,000  Level Albuquerque Center
02:05PM 34.2422 -112.1692 83° East 495 570 37,000  Level Albuquerque Center
02:06PM 34.2594 -112.0033 83° East 494 568 37,000  Level Albuquerque Center
02:07PM 34.2764 -111.8369 83° East 494 568 37,000  Level Albuquerque Center
02:08PM 34.2933 -111.6697 83° East 494 568 37,000  Level Albuquerque Center
02:09PM 34.3097 -111.5033 83° East 495 570 37,000  Level Albuquerque Center
02:10PM 34.3253 -111.3372 83° East 496 571 37,000  Level Albuquerque Center
02:11PM 34.3367 -111.1714 85° East 494 568 37,000  Level Albuquerque Center
02:12PM 34.3453 -110.9694 87° East 498 573 37,000  Level Albuquerque Center
02:13PM 34.3536 -110.8008 87° East 500 575 37,000  Level Albuquerque Center
02:14PM 34.3625 -110.6328 86° East 501 577 37,000  Level Albuquerque Center
02:15PM 34.3711 -110.4647 86° East 501 577 37,000  Level Albuquerque Center
02:16PM 34.3781 -110.2883 87° East 503 579 37,000  Level Albuquerque Center
02:17PM 34.3858 -110.1008 87° East 502 578 37,000  Level Albuquerque Center
02:19PM 34.3931 -109.9392 87° East 502 578 37,000  Level Albuquerque Center
02:20PM 34.4014 -109.7514 87° East 502 578 37,000  Level Albuquerque Center
02:21PM 34.4075 -109.5892 87° East 504 580 37,000  Level Albuquerque Center
02:22PM 34.4144 -109.4256 87° East 507 583 37,000  Level Albuquerque Center
02:23PM 34.4214 -109.2364 87° East 507 583 37,000  Level Albuquerque Center
02:24PM 34.4364 -109.0769 83° East 503 579 37,000  Level Albuquerque Center
02:25PM 34.4711 -108.8936 77° East 500 575 37,000  Level Albuquerque Center
02:26PM 34.4994 -108.7364 78° East 500 575 37,000  Level Albuquerque Center
02:27PM 34.5331 -108.5536 77° East 499 574 37,000  Level Albuquerque Center
02:28PM 34.5608 -108.3931 78° East 502 578 37,000  Level Albuquerque Center
02:29PM 34.5914 -108.2286 77° East 501 577 37,000  Level Albuquerque Center
02:30PM 34.6200 -108.0633 78° East 502 578 37,000  Level Albuquerque Center
02:31PM 34.6497 -107.8981 78° East 501 577 37,000  Level Albuquerque Center
02:32PM 34.6783 -107.7325 78° East 502 578 37,000  Level Albuquerque Center
02:33PM 34.7069 -107.5664 78° East 503 579 37,000  Level Albuquerque Center
02:34PM 34.7406 -107.3672 78° East 502 578 37,000  Level Albuquerque Center
02:35PM 34.7689 -107.2025 78° East 502 578 37,000  Level Albuquerque Center
02:36PM 34.7950 -107.0372 79° East 503 579 37,000  Level Albuquerque Center
02:37PM 34.8222 -106.8719 79° East 506 582 37,000  Level Albuquerque Center
02:38PM 34.8556 -106.6758 78° East 499 574 37,000  Level Albuquerque Center
02:39PM 34.8831 -106.5100 79° East 502 578 37,000  Level Albuquerque Center
02:40PM 34.9086 -106.3403 80° East 513 590 37,000  Level Albuquerque Center
02:41PM 34.9364 -106.1747 78° East 505 581 37,000  Level Albuquerque Center
02:42PM 34.9617 -106.0106 79° East 498 573 37,000  Level Albuquerque Center
02:43PM 34.9883 -105.8408 79° East 494 568 37,000  Level Albuquerque Center
02:44PM 35.0144 -105.6731 79° East 497 572 37,000  Level Albuquerque Center
02:45PM 35.0450 -105.4769 79° East 501 577 37,000  Level Albuquerque Center
02:46PM 35.0706 -105.3089 79° East 500 575 37,000  Level Albuquerque Center
02:47PM 35.0958 -105.1406 80° East 501 577 37,000  Level Albuquerque Center
02:48PM 35.1167 -104.9714 81° East 501 577 37,000  Level Albuquerque Center
02:49PM 35.1236 -104.8019 87° East 497 572 37,000  Level Albuquerque Center
02:50PM 35.1311 -104.6319 87° East 499 574 37,000  Level Albuquerque Center
02:51PM 35.1414 -104.4592 86° East 500 575 37,000  Level Albuquerque Center
02:52PM 35.1483 -104.2914 87° East 499 574 37,000  Level Albuquerque Center
02:53PM 35.1564 -104.1219 87° East 499 574 37,000  Level Albuquerque Center
02:55PM 35.1633 -103.9319 87° East 498 573 37,000  Level Albuquerque Center
02:56PM 35.1700 -103.7614 87° East 500 575 37,000  Level Albuquerque Center
02:57PM 35.1775 -103.5906 87° East 500 575 37,000  Level Albuquerque Center
02:58PM 35.1833 -103.4197 88° East 501 577 37,100 480 Climbing Albuquerque Center
02:59PM 35.1911 -103.2189 87° East 503 579 38,000 720 Climbing Albuquerque Center
03:00PM 35.1978 -103.0433 87° East 511 588 38,700 480 Climbing Albuquerque Center
03:01PM 35.2028 -102.8919 88° East 515 593 39,000 120 Climbing Albuquerque Center
03:02PM 35.2081 -102.6842 88° East 511 588 39,000  Level Albuquerque Center
03:03PM 35.2133 -102.5122 88° East 508 585 39,000  Level Albuquerque Center
03:04PM 35.2186 -102.3411 88° East 506 582 39,000  Level Albuquerque Center
03:05PM 35.2233 -102.1694 88° East 506 582 39,000  Level Albuquerque Center
03:06PM 35.2272 -101.9994 88° East 503 579 39,000  Level Albuquerque Center
03:07PM 35.2325 -101.8283 88° East 502 578 39,000  Level Albuquerque Center
03:08PM 35.2369 -101.6417 88° East 499 574 39,000  Level Albuquerque Center
03:09PM 35.2469 -101.4728 86° East 498 573 39,000  Level Albuquerque Center
03:10PM 35.2539 -101.3078 87° East 494 568 39,000  Level Albuquerque Center
03:11PM 35.2606 -101.1403 87° East 495 570 39,000  Level Albuquerque Center
03:12PM 35.2692 -100.9411 87° East 492 566 39,000  Level Albuquerque Center
03:14PM 35.2761 -100.6711 88° East 518 596 39,000  Level Fort Worth Center
03:14PM 35.2828 -100.6031 83° East 491 565 39,000  Level Albuquerque Center
03:15PM 35.2878 -100.4342 88° East 494 568 39,000  Level Albuquerque Center
03:16PM 35.2950 -100.2656 87° East 496 571 39,000  Level Albuquerque Center
03:17PM 35.3011 -100.0981 87° East 494 568 39,000  Level Albuquerque Center
03:18PM 35.3064 -99.9311 88° East 493 567 39,000  Level Albuquerque Center
03:19PM 35.3103 -99.7658 88° East 489 563 39,000  Level Albuquerque Center
03:20PM 35.3172 -99.5697 87° East 483 556 39,000  Level Albuquerque Center
03:21PM 35.3217 -99.4047 88° East 486 559 39,000  Level Albuquerque Center
03:22PM 35.3225 -99.3422 89° East 486 559 39,000  Level Fort Worth Center
03:23PM 35.3250 -99.1794 89° East 480 552 39,000  Level Fort Worth Center
03:24PM 35.3292 -99.0167 88° East 474 545 39,000  Level Fort Worth Center
03:25PM 35.3353 -98.8489 87° East 474 545 39,000  Level Fort Worth Center
03:26PM 35.3392 -98.6858 88° East 474 545 39,000  Level Fort Worth Center
03:27PM 35.3428 -98.5206 88° East 479 551 39,000  Level Fort Worth Center
03:28PM 35.3486 -98.3425 88° East 474 545 39,000  Level Fort Worth Center
03:29PM 35.3517 -98.1797 89° East 479 551 39,000  Level Fort Worth Center
03:30PM 35.3525 -98.0142 90° East 479 551 39,000  Level Fort Worth Center
03:31PM 35.3533 -97.8514 90° East 479 551 39,000  Level Fort Worth Center
03:32PM 35.3558 -97.6886 89° East 479 551 39,000  Level Fort Worth Center
03:33PM 35.3478 -97.5281 93° East 474 545 39,000  Level Fort Worth Center
03:34PM 35.3394 -97.3653 94° East 498 573 39,000  Level Fort Worth Center
03:35PM 35.3350 -97.1819 92° East 493 567 39,000  Level Fort Worth Center
03:36PM 35.3056 -97.0344 104° East 498 573 39,000  Level Fort Worth Center
03:37PM 35.2842 -96.8719 99° East 493 567 39,000  Level Fort Worth Center
03:38PM 35.2625 -96.7094 99° East 487 560 39,000  Level Fort Worth Center
03:39PM 35.2406 -96.5442 99° East 487 560 39,000  Level Fort Worth Center
03:40PM 35.2206 -96.3817 99° East 487 560 39,000  Level Fort Worth Center
03:41PM 35.2317 -96.2114 85° East 487 560 39,000  Level Fort Worth Center
03:42PM 35.2444 -96.0511 84° East 482 555 39,000  Level Fort Worth Center
03:43PM 35.2592 -95.8831 84° East 482 555 39,000  Level Fort Worth Center
03:44PM 35.2758 -95.7200 83° East 482 555 39,000  Level Fort Worth Center
03:47PM 35.3181 -95.1994 84° East 473 544 39,000  Level Memphis Center
03:48PM 35.3283 -95.0372 86° East 473 544 39,000  Level Memphis Center
03:49PM 35.3367 -94.8722 86° East 473 544 39,000  Level Memphis Center
03:50PM 35.3300 -94.7089 93° East 478 550 39,000  Level Memphis Center
03:51PM 35.3228 -94.5558 93° East 493 567 39,000  Level Memphis Center
03:52PM 35.3133 -94.3925 94° East 493 567 39,000  Level Memphis Center
03:53PM 35.3061 -94.2269 93° East 487 560 39,000  Level Memphis Center
03:54PM 35.2986 -94.0636 93° East 482 555 39,000  Level Memphis Center
03:55PM 35.2889 -93.9006 94° East 482 555 39,000  Level Memphis Center
03:56PM 35.2808 -93.7347 93° East 482 555 39,000  Level Memphis Center
03:57PM 35.2708 -93.5667 94° East 482 555 39,000  Level Memphis Center
03:58PM 35.2603 -93.4008 94° East 482 555 39,000  Level Memphis Center
03:59PM 35.2536 -93.2381 93° East 482 555 39,000  Level Memphis Center
04:00PM 35.2428 -93.0750 95° East 482 555 39,000  Level Memphis Center
04:01PM 35.2319 -92.9017 94° East 482 555 39,000  Level Memphis Center
04:02PM 35.2225 -92.7336 94° East 482 555 39,000  Level Memphis Center
04:03PM 35.2092 -92.5503 95° East 488 562 39,000  Level Memphis Center
04:04PM 35.1994 -92.3875 94° East 488 562 39,000  Level Memphis Center
04:05PM 35.1833 -92.2269 97° East 481 554 39,000  Level Memphis Center
04:06PM 35.1522 -92.0714 104° East 475 547 39,000  Level Memphis Center
04:07PM 35.1228 -91.9158 103° East 470 541 39,000  Level Memphis Center
04:08PM 35.0933 -91.7581 103° East 470 541 39,000  Level Memphis Center
04:09PM 35.0617 -91.5950 103° East 476 548 39,000  Level Memphis Center
04:10PM 35.0319 -91.4350 103° East 476 548 39,000  Level Memphis Center
04:11PM 35.0333 -91.2753 89° East 471 542 39,000  Level Memphis Center
04:12PM 35.0322 -91.1153 90° East 471 542 39,000  Level Memphis Center
04:13PM 35.0289 -90.9506 91° East 476 548 39,000  Level Memphis Center
04:14PM 35.0294 -90.7933 90° East 476 548 39,000  Level Memphis Center
04:15PM 35.0258 -90.6336 92° East 476 548 39,000  Level Memphis Center
04:16PM 35.0239 -90.4761 91° East 471 542 39,000  Level Memphis Center
04:17PM 35.0219 -90.3317 91° East 465 535 39,000  Level Memphis Center
04:18PM 35.0197 -90.1769 91° East 459 528 39,000  Level Memphis Center
04:19PM 35.0194 -90.0225 90° East 459 528 39,000  Level Memphis Center
04:20PM 35.0064 -89.8653 96° East 459 528 39,000  Level Memphis Center
04:21PM 34.9806 -89.6906 100° East 471 542 39,000  Level Memphis Center
04:22PM 34.9525 -89.5361 102° East 479 551 39,000  Level Memphis Center
04:23PM 34.9283 -89.3844 101° East 461 531 39,000  Level Memphis Center
04:24PM 34.9042 -89.2328 101° East 454 522 39,000  Level Memphis Center
04:25PM 34.8797 -89.0736 101° East 460 529 39,000  Level Memphis Center
04:26PM 34.8594 -88.9397 100° East 460 529 39,000  Level Memphis Center
04:27PM 34.8367 -88.7883 100° East 460 529 39,000  Level Memphis Center
04:28PM 34.8139 -88.6344 100° East 460 529 39,000  Level Memphis Center
04:29PM 34.7886 -88.4883 102° East 449 517 39,000  Level Memphis Center
04:30PM 34.7656 -88.3397 101° East 444 511 39,000 -120 Level Memphis Center
04:31PM 34.7422 -88.1886 101° East 450 518 38,800 -600 Descending Memphis Center
04:32PM 34.7139 -88.0150 101° East 468 539 37,800 -1,020 Descending Memphis Center
04:33PM 34.6900 -87.8592 101° East 468 539 36,800 -1,020 Descending Memphis Center
04:34PM 34.6661 -87.7083 101° East 468 539 35,800 -1,020 Descending Memphis Center
04:36PM 34.6203 -87.4186 101° East 449 517 33,900 -960 Descending Atlanta Center
04:37PM 34.5908 -87.2761 104° East 443 510 33,000 -480 Descending Atlanta Center
04:38PM 34.5631 -87.1364 104° East 431 496 33,000  Level Atlanta Center
04:39PM 34.5372 -86.9967 103° East 426 490 33,000  Level Atlanta Center
04:40PM 34.5092 -86.8569 104° East 426 490 33,000  Level Atlanta Center
04:41PM 34.4831 -86.7150 103° East 426 490 33,000  Level Atlanta Center
04:42PM 34.4550 -86.5706 103° East 426 490 33,000  Level Atlanta Center
04:43PM 34.4283 -86.4311 103° East 426 490 33,000 -660 Level Atlanta Center
04:44PM 34.4019 -86.2919 103° East 426 490 31,700 -1,680 Descending Atlanta Center
04:45PM 34.3731 -86.1528 104° East 426 490 29,700 -1,980 Descending Atlanta Center
04:46PM 34.3442 -86.0136 104° East 426 490 27,800 -1,920 Descending Atlanta Center
04:47PM 34.3189 -85.8797 103° East 419 482 25,900 -1,800 Descending Atlanta Center
04:48PM 34.2978 -85.7689 103° East 401 461 24,200 -1,800 Descending Atlanta Center
04:49PM 34.2681 -85.6425 106° East 381 438 22,400 -1,800 Descending Atlanta Center
04:50PM 34.2467 -85.5239 102° East 371 427 20,700 -1,860 Descending Atlanta Center
04:51PM 34.2208 -85.3978 104° East 372 428 18,700 -2,160 Descending Atlanta Center
04:52PM 34.1931 -85.2644 104° East 401 461 16,400 -2,400 Descending Atlanta Center
04:53PM 34.1650 -85.1383 105° East 396 456 13,900 -1,740 Descending Atlanta Center
04:54PM 34.1011 -85.0397 128° Southeast 366 421 13,000 -600 Descending Atlanta Center
04:55PM 34.0411 -84.9639 134° Southeast 327 376 12,700 -660 Descending Atlanta Center
04:56PM 33.9853 -84.8931 134° Southeast 298 343 11,700 -1,080 Descending Atlanta Center
04:57PM 33.9169 -84.8447 150° Southeast 298 343 10,600 -1,200 Descending Atlanta Center
04:58PM 33.8483 -84.8067 155° Southeast 284 327 9,300 -1,440 Descending Atlanta Center
04:58PM 33.8333 -84.7833 128° Southeast 267 307 8,800 -1,560 Descending Atlanta TRACON
04:59PM 33.7667 -84.7667 168° South 247 284 7,500 -1,500 Descending Atlanta TRACON
05:00PM 33.7000 -84.7667 180° South 256 295 6,000 -1,200 Descending Atlanta TRACON
05:01PM 33.6500 -84.7167 140° Southeast 235 270 5,200 -720 Descending Atlanta TRACON
05:02PM 33.6500 -84.6500 90° East 204 235 4,600 -780 Descending Atlanta TRACON
05:03PM 33.6500 -84.5833 90° East 177 204 3,700 -1,140 Descending Atlanta TRACON
05:04PM 33.6500 -84.5167 90° East 178 205 2,300 -1,020 Descending Atlanta TRACON
05:05PM 33.6500 -84.4667 90° East 142 163 1,600 -720 Descending Atlanta TRACON
05:07PM 33.6367 -84.4279 North  Level Estimated
05:14PM 33.6367 -84.4279 North  Level Estimated
05:15PM 33.6367 -84.4279 North  Level Estimated